sensor_id;sensor_type;location;lat;lon;timestamp;P1;durP1;ratioP1;P2;durP2;ratioP2
17151;SDS011;8691;50.828;4.700;2023-08-31T00:00:23;1.20;;;1.00;;
17151;SDS011;8691;50.828;4.700;2023-08-31T00:02:50;3.33;;;1.03;;
17151;SDS011;8691;50.828;4.700;2023-08-31T00:05:17;1.70;;;1.20;;
17151;SDS011;8691;50.828;4.700;2023-08-31T00:07:43;1.60;;;1.17;;
17151;SDS011;8691;50.828;4.700;2023-08-31T00:10:10;1.43;;;0.90;;
17151;SDS011;8691;50.828;4.700;2023-08-31T00:12:37;1.85;;;1.17;;
17151;SDS011;8691;50.828;4.700;2023-08-31T00:15:04;2.38;;;1.40;;
17151;SDS011;8691;50.828;4.700;2023-08-31T00:17:31;1.35;;;1.20;;
17151;SDS011;8691;50.828;4.700;2023-08-31T00:19:58;1.30;;;1.20;;
17151;SDS011;8691;50.828;4.700;2023-08-31T00:22:24;1.57;;;1.23;;
17151;SDS011;8691;50.828;4.700;2023-08-31T00:24:51;1.52;;;1.25;;
17151;SDS011;8691;50.828;4.700;2023-08-31T00:27:18;1.30;;;1.20;;
17151;SDS011;8691;50.828;4.700;2023-08-31T00:29:45;1.35;;;1.20;;
17151;SDS011;8691;50.828;4.700;2023-08-31T00:32:12;1.13;;;1.03;;
17151;SDS011;8691;50.828;4.700;2023-08-31T00:34:39;3.20;;;1.25;;
17151;SDS011;8691;50.828;4.700;2023-08-31T00:37:05;1.50;;;1.40;;
17151;SDS011;8691;50.828;4.700;2023-08-31T00:39:32;2.10;;;1.60;;
17151;SDS011;8691;50.828;4.700;2023-08-31T00:41:59;2.43;;;1.40;;
17151;SDS011;8691;50.828;4.700;2023-08-31T00:44:25;3.03;;;1.33;;
17151;SDS011;8691;50.828;4.700;2023-08-31T00:46:52;1.67;;;1.58;;
17151;SDS011;8691;50.828;4.700;2023-08-31T00:49:19;1.50;;;1.40;;
17151;SDS011;8691;50.828;4.700;2023-08-31T00:51:46;1.73;;;1.40;;
17151;SDS011;8691;50.828;4.700;2023-08-31T00:54:19;2.47;;;1.30;;
17151;SDS011;8691;50.828;4.700;2023-08-31T00:56:52;2.10;;;1.50;;
17151;SDS011;8691;50.828;4.700;2023-08-31T00:59:19;1.65;;;1.55;;
17151;SDS011;8691;50.828;4.700;2023-08-31T01:01:49;1.80;;;1.40;;
17151;SDS011;8691;50.828;4.700;2023-08-31T01:07:17;2.30;;;1.90;;
17151;SDS011;8691;50.828;4.700;2023-08-31T01:12:17;2.00;;;1.77;;
17151;SDS011;8691;50.828;4.700;2023-08-31T01:14:44;2.20;;;1.92;;
17151;SDS011;8691;50.828;4.700;2023-08-31T01:17:10;2.00;;;1.80;;
17151;SDS011;8691;50.828;4.700;2023-08-31T01:22:07;1.95;;;1.80;;
17151;SDS011;8691;50.828;4.700;2023-08-31T01:24:34;2.20;;;2.00;;
17151;SDS011;8691;50.828;4.700;2023-08-31T01:27:01;3.15;;;2.20;;
17151;SDS011;8691;50.828;4.700;2023-08-31T01:29:29;2.30;;;2.10;;
17151;SDS011;8691;50.828;4.700;2023-08-31T01:31:55;2.40;;;2.00;;
17151;SDS011;8691;50.828;4.700;2023-08-31T01:34:22;3.07;;;2.20;;
17151;SDS011;8691;50.828;4.700;2023-08-31T01:36:53;2.43;;;1.97;;
17151;SDS011;8691;50.828;4.700;2023-08-31T01:42:04;2.40;;;2.20;;
17151;SDS011;8691;50.828;4.700;2023-08-31T01:44:31;2.97;;;2.42;;
17151;SDS011;8691;50.828;4.700;2023-08-31T01:47:01;2.97;;;2.62;;
17151;SDS011;8691;50.828;4.700;2023-08-31T01:49:26;3.77;;;2.47;;
17151;SDS011;8691;50.828;4.700;2023-08-31T01:51:53;3.30;;;2.70;;
17151;SDS011;8691;50.828;4.700;2023-08-31T01:54:20;3.08;;;2.60;;
17151;SDS011;8691;50.828;4.700;2023-08-31T01:56:47;2.47;;;2.28;;
17151;SDS011;8691;50.828;4.700;2023-08-31T01:59:14;4.20;;;2.75;;
17151;SDS011;8691;50.828;4.700;2023-08-31T02:01:41;3.17;;;2.73;;
17151;SDS011;8691;50.828;4.700;2023-08-31T02:04:08;2.90;;;2.70;;
17151;SDS011;8691;50.828;4.700;2023-08-31T02:06:34;4.15;;;2.80;;
17151;SDS011;8691;50.828;4.700;2023-08-31T02:09:01;2.78;;;2.50;;
17151;SDS011;8691;50.828;4.700;2023-08-31T02:11:28;4.03;;;2.78;;
17151;SDS011;8691;50.828;4.700;2023-08-31T02:13:56;3.28;;;2.95;;
17151;SDS011;8691;50.828;4.700;2023-08-31T02:16:23;3.62;;;2.88;;
17151;SDS011;8691;50.828;4.700;2023-08-31T02:18:50;3.03;;;2.58;;
17151;SDS011;8691;50.828;4.700;2023-08-31T02:21:17;3.12;;;2.80;;
17151;SDS011;8691;50.828;4.700;2023-08-31T02:23:44;5.30;;;2.20;;
17151;SDS011;8691;50.828;4.700;2023-08-31T02:26:11;4.30;;;2.93;;
17151;SDS011;8691;50.828;4.700;2023-08-31T02:28:37;4.60;;;2.90;;
17151;SDS011;8691;50.828;4.700;2023-08-31T02:31:04;3.83;;;2.97;;
17151;SDS011;8691;50.828;4.700;2023-08-31T02:33:31;3.88;;;3.00;;
17151;SDS011;8691;50.828;4.700;2023-08-31T02:35:58;3.55;;;3.22;;
17151;SDS011;8691;50.828;4.700;2023-08-31T02:38:25;3.63;;;2.97;;
17151;SDS011;8691;50.828;4.700;2023-08-31T02:40:52;3.47;;;3.08;;
17151;SDS011;8691;50.828;4.700;2023-08-31T02:43:19;3.87;;;2.77;;
17151;SDS011;8691;50.828;4.700;2023-08-31T02:45:46;4.00;;;2.70;;
17151;SDS011;8691;50.828;4.700;2023-08-31T02:48:13;3.70;;;2.70;;
17151;SDS011;8691;50.828;4.700;2023-08-31T02:50:40;4.00;;;2.90;;
17151;SDS011;8691;50.828;4.700;2023-08-31T02:53:07;3.70;;;2.67;;
17151;SDS011;8691;50.828;4.700;2023-08-31T02:55:34;4.37;;;2.90;;
17151;SDS011;8691;50.828;4.700;2023-08-31T02:58:01;3.78;;;2.83;;
17151;SDS011;8691;50.828;4.700;2023-08-31T03:00:28;3.93;;;1.90;;
17151;SDS011;8691;50.828;4.700;2023-08-31T03:02:55;3.87;;;3.00;;
17151;SDS011;8691;50.828;4.700;2023-08-31T03:05:22;3.97;;;2.70;;
17151;SDS011;8691;50.828;4.700;2023-08-31T03:07:49;4.90;;;2.90;;
17151;SDS011;8691;50.828;4.700;2023-08-31T03:10:15;6.10;;;3.00;;
17151;SDS011;8691;50.828;4.700;2023-08-31T03:12:42;4.03;;;2.72;;
17151;SDS011;8691;50.828;4.700;2023-08-31T03:15:09;4.03;;;2.90;;
17151;SDS011;8691;50.828;4.700;2023-08-31T03:17:36;3.47;;;2.88;;
17151;SDS011;8691;50.828;4.700;2023-08-31T03:20:03;3.60;;;2.97;;
17151;SDS011;8691;50.828;4.700;2023-08-31T03:22:30;3.37;;;2.70;;
17151;SDS011;8691;50.828;4.700;2023-08-31T03:24:57;4.15;;;2.70;;
17151;SDS011;8691;50.828;4.700;2023-08-31T03:27:24;4.95;;;2.85;;
17151;SDS011;8691;50.828;4.700;2023-08-31T03:29:52;4.18;;;2.85;;
17151;SDS011;8691;50.828;4.700;2023-08-31T03:32:20;3.58;;;2.80;;
17151;SDS011;8691;50.828;4.700;2023-08-31T03:34:46;4.17;;;3.07;;
17151;SDS011;8691;50.828;4.700;2023-08-31T03:37:13;3.78;;;2.62;;
17151;SDS011;8691;50.828;4.700;2023-08-31T03:39:40;4.12;;;2.55;;
17151;SDS011;8691;50.828;4.700;2023-08-31T03:42:10;2.92;;;2.53;;
17151;SDS011;8691;50.828;4.700;2023-08-31T03:44:38;3.90;;;2.60;;
17151;SDS011;8691;50.828;4.700;2023-08-31T03:47:04;5.37;;;2.60;;
17151;SDS011;8691;50.828;4.700;2023-08-31T03:49:31;4.75;;;2.60;;
17151;SDS011;8691;50.828;4.700;2023-08-31T03:51:59;3.72;;;2.55;;
17151;SDS011;8691;50.828;4.700;2023-08-31T03:54:26;4.85;;;2.67;;
17151;SDS011;8691;50.828;4.700;2023-08-31T03:56:53;4.93;;;2.70;;
17151;SDS011;8691;50.828;4.700;2023-08-31T03:59:19;4.75;;;2.50;;
17151;SDS011;8691;50.828;4.700;2023-08-31T04:01:46;3.15;;;2.22;;
17151;SDS011;8691;50.828;4.700;2023-08-31T04:04:13;3.20;;;1.80;;
17151;SDS011;8691;50.828;4.700;2023-08-31T04:06:40;2.97;;;2.45;;
17151;SDS011;8691;50.828;4.700;2023-08-31T04:09:06;3.72;;;2.30;;
17151;SDS011;8691;50.828;4.700;2023-08-31T04:11:33;4.53;;;2.67;;
17151;SDS011;8691;50.828;4.700;2023-08-31T04:14:00;5.07;;;2.70;;
17151;SDS011;8691;50.828;4.700;2023-08-31T04:16:27;3.10;;;2.72;;
17151;SDS011;8691;50.828;4.700;2023-08-31T04:18:54;3.15;;;2.40;;
17151;SDS011;8691;50.828;4.700;2023-08-31T04:21:22;2.72;;;2.12;;
17151;SDS011;8691;50.828;4.700;2023-08-31T04:23:49;3.70;;;2.17;;
17151;SDS011;8691;50.828;4.700;2023-08-31T04:26:16;2.83;;;2.33;;
17151;SDS011;8691;50.828;4.700;2023-08-31T04:28:43;3.85;;;2.30;;
17151;SDS011;8691;50.828;4.700;2023-08-31T04:31:10;2.97;;;2.28;;
17151;SDS011;8691;50.828;4.700;2023-08-31T04:33:37;2.72;;;2.30;;
17151;SDS011;8691;50.828;4.700;2023-08-31T04:36:04;2.50;;;1.93;;
17151;SDS011;8691;50.828;4.700;2023-08-31T04:38:31;2.60;;;2.20;;
17151;SDS011;8691;50.828;4.700;2023-08-31T04:40:59;3.60;;;2.40;;
17151;SDS011;8691;50.828;4.700;2023-08-31T04:43:25;2.88;;;2.42;;
17151;SDS011;8691;50.828;4.700;2023-08-31T04:45:52;2.55;;;2.20;;
17151;SDS011;8691;50.828;4.700;2023-08-31T04:48:19;3.20;;;2.35;;
17151;SDS011;8691;50.828;4.700;2023-08-31T04:50:46;2.47;;;2.12;;
17151;SDS011;8691;50.828;4.700;2023-08-31T04:53:13;3.08;;;2.25;;
17151;SDS011;8691;50.828;4.700;2023-08-31T04:55:40;4.17;;;2.20;;
17151;SDS011;8691;50.828;4.700;2023-08-31T04:58:07;3.87;;;2.20;;
17151;SDS011;8691;50.828;4.700;2023-08-31T05:00:34;4.43;;;2.60;;
17151;SDS011;8691;50.828;4.700;2023-08-31T05:03:01;3.30;;;2.30;;
17151;SDS011;8691;50.828;4.700;2023-08-31T05:05:27;3.38;;;2.20;;
17151;SDS011;8691;50.828;4.700;2023-08-31T05:07:54;4.13;;;2.27;;
17151;SDS011;8691;50.828;4.700;2023-08-31T05:10:22;2.42;;;1.90;;
17151;SDS011;8691;50.828;4.700;2023-08-31T05:12:50;4.20;;;2.40;;
17151;SDS011;8691;50.828;4.700;2023-08-31T05:15:16;4.07;;;2.20;;
17151;SDS011;8691;50.828;4.700;2023-08-31T05:17:43;3.30;;;2.10;;
17151;SDS011;8691;50.828;4.700;2023-08-31T05:20:10;3.20;;;2.20;;
17151;SDS011;8691;50.828;4.700;2023-08-31T05:22:37;3.43;;;2.27;;
17151;SDS011;8691;50.828;4.700;2023-08-31T05:25:05;3.78;;;2.30;;
17151;SDS011;8691;50.828;4.700;2023-08-31T05:27:32;3.73;;;2.10;;
17151;SDS011;8691;50.828;4.700;2023-08-31T05:29:59;3.17;;;2.55;;
17151;SDS011;8691;50.828;4.700;2023-08-31T05:32:30;3.65;;;2.40;;
17151;SDS011;8691;50.828;4.700;2023-08-31T05:34:57;6.07;;;2.50;;
17151;SDS011;8691;50.828;4.700;2023-08-31T05:37:23;3.40;;;2.42;;
17151;SDS011;8691;50.828;4.700;2023-08-31T05:39:50;3.70;;;2.30;;
17151;SDS011;8691;50.828;4.700;2023-08-31T05:42:18;3.92;;;2.10;;
17151;SDS011;8691;50.828;4.700;2023-08-31T05:44:45;2.33;;;2.00;;
17151;SDS011;8691;50.828;4.700;2023-08-31T05:47:13;4.90;;;2.40;;
17151;SDS011;8691;50.828;4.700;2023-08-31T05:49:40;4.18;;;2.12;;
17151;SDS011;8691;50.828;4.700;2023-08-31T05:52:07;3.80;;;2.70;;
17151;SDS011;8691;50.828;4.700;2023-08-31T05:54:34;3.55;;;2.30;;
17151;SDS011;8691;50.828;4.700;2023-08-31T05:57:02;2.30;;;1.80;;
17151;SDS011;8691;50.828;4.700;2023-08-31T05:59:27;3.27;;;1.80;;
17151;SDS011;8691;50.828;4.700;2023-08-31T06:01:54;3.17;;;1.60;;
17151;SDS011;8691;50.828;4.700;2023-08-31T06:04:22;3.17;;;1.60;;
17151;SDS011;8691;50.828;4.700;2023-08-31T06:06:48;2.40;;;1.40;;
17151;SDS011;8691;50.828;4.700;2023-08-31T06:09:15;3.78;;;1.67;;
17151;SDS011;8691;50.828;4.700;2023-08-31T06:11:42;2.90;;;1.40;;
17151;SDS011;8691;50.828;4.700;2023-08-31T06:14:09;2.60;;;1.50;;
17151;SDS011;8691;50.828;4.700;2023-08-31T06:16:36;4.33;;;1.60;;
17151;SDS011;8691;50.828;4.700;2023-08-31T06:19:03;2.10;;;1.40;;
17151;SDS011;8691;50.828;4.700;2023-08-31T06:21:30;2.70;;;1.40;;
17151;SDS011;8691;50.828;4.700;2023-08-31T06:23:56;2.72;;;1.33;;
17151;SDS011;8691;50.828;4.700;2023-08-31T06:26:24;3.22;;;1.70;;
17151;SDS011;8691;50.828;4.700;2023-08-31T06:28:51;3.00;;;1.40;;
17151;SDS011;8691;50.828;4.700;2023-08-31T06:31:17;3.10;;;1.63;;
17151;SDS011;8691;50.828;4.700;2023-08-31T06:33:44;3.27;;;1.50;;
17151;SDS011;8691;50.828;4.700;2023-08-31T06:36:11;2.40;;;1.58;;
17151;SDS011;8691;50.828;4.700;2023-08-31T06:38:38;3.15;;;1.52;;
17151;SDS011;8691;50.828;4.700;2023-08-31T06:41:05;4.07;;;1.57;;
17151;SDS011;8691;50.828;4.700;2023-08-31T06:43:32;3.47;;;1.33;;
17151;SDS011;8691;50.828;4.700;2023-08-31T06:45:59;3.40;;;1.53;;
17151;SDS011;8691;50.828;4.700;2023-08-31T06:48:26;4.40;;;1.73;;
17151;SDS011;8691;50.828;4.700;2023-08-31T06:50:54;3.17;;;1.60;;
17151;SDS011;8691;50.828;4.700;2023-08-31T06:53:21;2.85;;;1.27;;
17151;SDS011;8691;50.828;4.700;2023-08-31T06:55:48;4.37;;;1.57;;
17151;SDS011;8691;50.828;4.700;2023-08-31T06:58:15;3.58;;;1.65;;
17151;SDS011;8691;50.828;4.700;2023-08-31T07:00:42;3.37;;;1.40;;
17151;SDS011;8691;50.828;4.700;2023-08-31T07:03:09;4.05;;;1.80;;
17151;SDS011;8691;50.828;4.700;2023-08-31T07:05:36;3.33;;;1.52;;
17151;SDS011;8691;50.828;4.700;2023-08-31T07:08:03;5.27;;;1.83;;
17151;SDS011;8691;50.828;4.700;2023-08-31T07:10:30;5.10;;;1.70;;
17151;SDS011;8691;50.828;4.700;2023-08-31T07:12:57;3.55;;;1.70;;
17151;SDS011;8691;50.828;4.700;2023-08-31T07:15:23;4.83;;;1.77;;
17151;SDS011;8691;50.828;4.700;2023-08-31T07:17:51;3.35;;;1.90;;
17151;SDS011;8691;50.828;4.700;2023-08-31T07:20:18;3.40;;;1.80;;
17151;SDS011;8691;50.828;4.700;2023-08-31T07:22:45;4.15;;;1.77;;
17151;SDS011;8691;50.828;4.700;2023-08-31T07:25:12;4.60;;;1.90;;
17151;SDS011;8691;50.828;4.700;2023-08-31T07:27:39;4.37;;;1.63;;
17151;SDS011;8691;50.828;4.700;2023-08-31T07:30:06;3.60;;;1.70;;
17151;SDS011;8691;50.828;4.700;2023-08-31T07:32:33;2.60;;;1.60;;
17151;SDS011;8691;50.828;4.700;2023-08-31T07:35:00;5.13;;;1.57;;
17151;SDS011;8691;50.828;4.700;2023-08-31T07:37:27;4.22;;;1.75;;
17151;SDS011;8691;50.828;4.700;2023-08-31T07:39:53;4.53;;;1.87;;
17151;SDS011;8691;50.828;4.700;2023-08-31T07:42:20;5.25;;;1.73;;
17151;SDS011;8691;50.828;4.700;2023-08-31T07:44:47;4.22;;;1.70;;
17151;SDS011;8691;50.828;4.700;2023-08-31T07:47:14;2.50;;;1.60;;
17151;SDS011;8691;50.828;4.700;2023-08-31T07:49:42;3.42;;;1.73;;
17151;SDS011;8691;50.828;4.700;2023-08-31T07:52:09;5.23;;;1.93;;
17151;SDS011;8691;50.828;4.700;2023-08-31T07:54:36;3.62;;;2.00;;
17151;SDS011;8691;50.828;4.700;2023-08-31T07:57:02;4.77;;;1.73;;
17151;SDS011;8691;50.828;4.700;2023-08-31T07:59:29;5.07;;;1.85;;
17151;SDS011;8691;50.828;4.700;2023-08-31T08:01:56;3.30;;;1.90;;
17151;SDS011;8691;50.828;4.700;2023-08-31T08:04:23;4.03;;;1.87;;
17151;SDS011;8691;50.828;4.700;2023-08-31T08:06:50;3.03;;;1.62;;
17151;SDS011;8691;50.828;4.700;2023-08-31T08:09:17;6.40;;;2.00;;
17151;SDS011;8691;50.828;4.700;2023-08-31T08:11:44;3.20;;;1.50;;
17151;SDS011;8691;50.828;4.700;2023-08-31T08:14:11;3.35;;;1.70;;
17151;SDS011;8691;50.828;4.700;2023-08-31T08:16:38;4.43;;;1.87;;
17151;SDS011;8691;50.828;4.700;2023-08-31T08:19:06;3.03;;;1.60;;
17151;SDS011;8691;50.828;4.700;2023-08-31T08:21:32;3.83;;;1.70;;
17151;SDS011;8691;50.828;4.700;2023-08-31T08:23:59;3.08;;;1.60;;
17151;SDS011;8691;50.828;4.700;2023-08-31T08:26:26;2.50;;;1.50;;
17151;SDS011;8691;50.828;4.700;2023-08-31T08:28:53;4.25;;;1.60;;
17151;SDS011;8691;50.828;4.700;2023-08-31T08:31:20;5.10;;;1.70;;
17151;SDS011;8691;50.828;4.700;2023-08-31T08:33:47;3.65;;;1.70;;
17151;SDS011;8691;50.828;4.700;2023-08-31T08:36:13;3.80;;;1.87;;
17151;SDS011;8691;50.828;4.700;2023-08-31T08:38:40;3.70;;;1.83;;
17151;SDS011;8691;50.828;4.700;2023-08-31T08:41:07;3.77;;;1.83;;
17151;SDS011;8691;50.828;4.700;2023-08-31T08:43:34;3.42;;;1.70;;
17151;SDS011;8691;50.828;4.700;2023-08-31T08:46:04;2.77;;;1.67;;
17151;SDS011;8691;50.828;4.700;2023-08-31T08:48:30;4.60;;;2.10;;
17151;SDS011;8691;50.828;4.700;2023-08-31T08:50:57;5.32;;;2.05;;
17151;SDS011;8691;50.828;4.700;2023-08-31T08:53:24;3.50;;;1.80;;
17151;SDS011;8691;50.828;4.700;2023-08-31T08:55:52;4.00;;;2.13;;
17151;SDS011;8691;50.828;4.700;2023-08-31T08:58:19;4.43;;;2.05;;
17151;SDS011;8691;50.828;4.700;2023-08-31T09:00:46;4.97;;;2.30;;
17151;SDS011;8691;50.828;4.700;2023-08-31T09:03:13;4.23;;;2.10;;
17151;SDS011;8691;50.828;4.700;2023-08-31T09:05:40;5.07;;;2.05;;
17151;SDS011;8691;50.828;4.700;2023-08-31T09:08:08;3.50;;;1.62;;
17151;SDS011;8691;50.828;4.700;2023-08-31T09:10:37;4.97;;;2.00;;
17151;SDS011;8691;50.828;4.700;2023-08-31T09:13:08;3.08;;;1.80;;
17151;SDS011;8691;50.828;4.700;2023-08-31T09:15:41;4.00;;;2.12;;
17151;SDS011;8691;50.828;4.700;2023-08-31T09:18:14;4.80;;;2.00;;
17151;SDS011;8691;50.828;4.700;2023-08-31T09:20:44;4.57;;;2.00;;
17151;SDS011;8691;50.828;4.700;2023-08-31T09:23:11;3.20;;;1.70;;
17151;SDS011;8691;50.828;4.700;2023-08-31T09:25:40;4.27;;;1.70;;
17151;SDS011;8691;50.828;4.700;2023-08-31T09:28:07;3.30;;;1.70;;
17151;SDS011;8691;50.828;4.700;2023-08-31T09:30:35;4.07;;;1.70;;
17151;SDS011;8691;50.828;4.700;2023-08-31T09:33:02;4.93;;;1.65;;
17151;SDS011;8691;50.828;4.700;2023-08-31T09:35:28;5.03;;;1.87;;
17151;SDS011;8691;50.828;4.700;2023-08-31T09:37:55;4.70;;;1.75;;
17151;SDS011;8691;50.828;4.700;2023-08-31T09:40:22;4.60;;;1.60;;
17151;SDS011;8691;50.828;4.700;2023-08-31T09:42:52;2.67;;;1.60;;
17151;SDS011;8691;50.828;4.700;2023-08-31T09:45:29;3.00;;;1.73;;
17151;SDS011;8691;50.828;4.700;2023-08-31T09:47:56;4.17;;;1.80;;
17151;SDS011;8691;50.828;4.700;2023-08-31T09:50:22;3.47;;;1.90;;
17151;SDS011;8691;50.828;4.700;2023-08-31T09:52:49;4.45;;;1.50;;
17151;SDS011;8691;50.828;4.700;2023-08-31T09:55:16;4.33;;;1.70;;
17151;SDS011;8691;50.828;4.700;2023-08-31T09:57:43;3.20;;;1.60;;
17151;SDS011;8691;50.828;4.700;2023-08-31T10:00:10;4.70;;;1.65;;
17151;SDS011;8691;50.828;4.700;2023-08-31T10:02:37;3.62;;;1.60;;
17151;SDS011;8691;50.828;4.700;2023-08-31T10:05:04;3.10;;;1.50;;
17151;SDS011;8691;50.828;4.700;2023-08-31T10:07:31;2.95;;;1.70;;
17151;SDS011;8691;50.828;4.700;2023-08-31T10:09:58;4.03;;;1.60;;
17151;SDS011;8691;50.828;4.700;2023-08-31T10:12:25;3.50;;;1.90;;
17151;SDS011;8691;50.828;4.700;2023-08-31T10:14:52;3.00;;;1.70;;
17151;SDS011;8691;50.828;4.700;2023-08-31T10:17:19;3.57;;;1.30;;
17151;SDS011;8691;50.828;4.700;2023-08-31T10:19:46;3.95;;;1.65;;
17151;SDS011;8691;50.828;4.700;2023-08-31T10:22:13;3.00;;;1.60;;
17151;SDS011;8691;50.828;4.700;2023-08-31T10:24:59;3.37;;;1.40;;
17151;SDS011;8691;50.828;4.700;2023-08-31T10:27:25;3.33;;;1.50;;
17151;SDS011;8691;50.828;4.700;2023-08-31T10:29:52;2.87;;;1.40;;
17151;SDS011;8691;50.828;4.700;2023-08-31T10:32:19;2.05;;;1.12;;
17151;SDS011;8691;50.828;4.700;2023-08-31T10:35:04;3.73;;;1.40;;
17151;SDS011;8691;50.828;4.700;2023-08-31T10:37:31;3.30;;;1.70;;
17151;SDS011;8691;50.828;4.700;2023-08-31T10:40:07;4.12;;;1.62;;
17151;SDS011;8691;50.828;4.700;2023-08-31T10:42:40;4.07;;;1.40;;
17151;SDS011;8691;50.828;4.700;2023-08-31T10:45:06;2.53;;;1.42;;
17151;SDS011;8691;50.828;4.700;2023-08-31T10:47:39;4.03;;;1.60;;
17151;SDS011;8691;50.828;4.700;2023-08-31T10:50:18;3.85;;;1.20;;
17151;SDS011;8691;50.828;4.700;2023-08-31T10:52:45;2.95;;;1.40;;
17151;SDS011;8691;50.828;4.700;2023-08-31T10:55:12;2.65;;;1.40;;
17151;SDS011;8691;50.828;4.700;2023-08-31T10:57:40;2.83;;;1.50;;
17151;SDS011;8691;50.828;4.700;2023-08-31T11:00:06;2.72;;;1.38;;
17151;SDS011;8691;50.828;4.700;2023-08-31T11:02:46;4.88;;;1.42;;
17151;SDS011;8691;50.828;4.700;2023-08-31T11:05:13;3.47;;;1.40;;
17151;SDS011;8691;50.828;4.700;2023-08-31T11:07:40;2.67;;;1.42;;
17151;SDS011;8691;50.828;4.700;2023-08-31T11:10:19;2.70;;;1.60;;
17151;SDS011;8691;50.828;4.700;2023-08-31T11:12:46;4.07;;;1.88;;
17151;SDS011;8691;50.828;4.700;2023-08-31T11:15:15;2.72;;;1.55;;
17151;SDS011;8691;50.828;4.700;2023-08-31T11:17:42;3.55;;;1.40;;
17151;SDS011;8691;50.828;4.700;2023-08-31T11:20:12;3.57;;;1.30;;
17151;SDS011;8691;50.828;4.700;2023-08-31T11:22:42;4.72;;;1.62;;
17151;SDS011;8691;50.828;4.700;2023-08-31T11:25:09;3.80;;;1.57;;
17151;SDS011;8691;50.828;4.700;2023-08-31T11:27:36;3.47;;;1.50;;
17151;SDS011;8691;50.828;4.700;2023-08-31T11:30:06;3.95;;;1.45;;
17151;SDS011;8691;50.828;4.700;2023-08-31T11:32:43;3.77;;;1.43;;
17151;SDS011;8691;50.828;4.700;2023-08-31T11:35:12;5.50;;;1.50;;
17151;SDS011;8691;50.828;4.700;2023-08-31T11:37:39;2.90;;;1.30;;
17151;SDS011;8691;50.828;4.700;2023-08-31T11:40:06;3.73;;;1.63;;
17151;SDS011;8691;50.828;4.700;2023-08-31T11:42:33;2.35;;;1.50;;
17151;SDS011;8691;50.828;4.700;2023-08-31T11:45:00;2.95;;;1.40;;
17151;SDS011;8691;50.828;4.700;2023-08-31T11:47:27;2.03;;;1.30;;
17151;SDS011;8691;50.828;4.700;2023-08-31T11:49:54;3.88;;;1.45;;
17151;SDS011;8691;50.828;4.700;2023-08-31T11:52:21;4.38;;;1.60;;
17151;SDS011;8691;50.828;4.700;2023-08-31T11:54:47;3.63;;;1.70;;
17151;SDS011;8691;50.828;4.700;2023-08-31T11:57:14;4.90;;;1.90;;
17151;SDS011;8691;50.828;4.700;2023-08-31T11:59:41;3.38;;;1.40;;
17151;SDS011;8691;50.828;4.700;2023-08-31T12:02:08;4.50;;;1.70;;
17151;SDS011;8691;50.828;4.700;2023-08-31T12:04:42;2.28;;;1.30;;
17151;SDS011;8691;50.828;4.700;2023-08-31T12:07:08;3.33;;;1.80;;
17151;SDS011;8691;50.828;4.700;2023-08-31T12:09:35;2.67;;;1.43;;
17151;SDS011;8691;50.828;4.700;2023-08-31T12:12:02;4.80;;;1.42;;
17151;SDS011;8691;50.828;4.700;2023-08-31T12:14:29;3.05;;;1.12;;
17151;SDS011;8691;50.828;4.700;2023-08-31T12:17:05;3.37;;;1.10;;
17151;SDS011;8691;50.828;4.700;2023-08-31T12:19:28;5.60;;;1.40;;
17151;SDS011;8691;50.828;4.700;2023-08-31T12:21:57;2.93;;;1.30;;
17151;SDS011;8691;50.828;4.700;2023-08-31T12:24:25;4.32;;;1.50;;
17151;SDS011;8691;50.828;4.700;2023-08-31T12:26:52;3.07;;;1.30;;
17151;SDS011;8691;50.828;4.700;2023-08-31T12:29:22;2.50;;;1.40;;
17151;SDS011;8691;50.828;4.700;2023-08-31T12:31:49;3.20;;;1.50;;
17151;SDS011;8691;50.828;4.700;2023-08-31T12:34:16;2.88;;;1.20;;
17151;SDS011;8691;50.828;4.700;2023-08-31T12:36:43;3.57;;;1.20;;
17151;SDS011;8691;50.828;4.700;2023-08-31T12:39:10;2.92;;;1.30;;
17151;SDS011;8691;50.828;4.700;2023-08-31T12:41:37;5.03;;;1.40;;
17151;SDS011;8691;50.828;4.700;2023-08-31T12:44:05;3.15;;;1.48;;
17151;SDS011;8691;50.828;4.700;2023-08-31T12:46:32;6.33;;;1.20;;
17151;SDS011;8691;50.828;4.700;2023-08-31T12:49:01;3.87;;;1.33;;
17151;SDS011;8691;50.828;4.700;2023-08-31T12:51:31;2.78;;;1.45;;
17151;SDS011;8691;50.828;4.700;2023-08-31T12:53:55;2.90;;;1.10;;
17151;SDS011;8691;50.828;4.700;2023-08-31T12:56:22;3.17;;;1.20;;
17151;SDS011;8691;50.828;4.700;2023-08-31T12:58:49;2.50;;;1.47;;
17151;SDS011;8691;50.828;4.700;2023-08-31T13:01:16;3.33;;;1.08;;
17151;SDS011;8691;50.828;4.700;2023-08-31T13:03:43;3.90;;;1.40;;
17151;SDS011;8691;50.828;4.700;2023-08-31T13:06:10;3.88;;;1.20;;
17151;SDS011;8691;50.828;4.700;2023-08-31T13:08:37;2.73;;;1.33;;
17151;SDS011;8691;50.828;4.700;2023-08-31T13:11:03;1.90;;;1.10;;
17151;SDS011;8691;50.828;4.700;2023-08-31T13:13:30;3.93;;;1.43;;
17151;SDS011;8691;50.828;4.700;2023-08-31T13:15:57;3.22;;;1.40;;
17151;SDS011;8691;50.828;4.700;2023-08-31T13:18:25;2.30;;;1.40;;
17151;SDS011;8691;50.828;4.700;2023-08-31T13:20:54;3.50;;;1.25;;
17151;SDS011;8691;50.828;4.700;2023-08-31T13:23:21;3.15;;;1.35;;
17151;SDS011;8691;50.828;4.700;2023-08-31T13:25:48;2.37;;;1.00;;
17151;SDS011;8691;50.828;4.700;2023-08-31T13:28:15;3.12;;;1.05;;
17151;SDS011;8691;50.828;4.700;2023-08-31T13:30:42;3.10;;;1.30;;
17151;SDS011;8691;50.828;4.700;2023-08-31T13:33:09;3.70;;;1.10;;
17151;SDS011;8691;50.828;4.700;2023-08-31T13:35:36;2.70;;;1.10;;
17151;SDS011;8691;50.828;4.700;2023-08-31T13:38:03;3.45;;;1.10;;
17151;SDS011;8691;50.828;4.700;2023-08-31T13:40:33;3.80;;;1.17;;
17151;SDS011;8691;50.828;4.700;2023-08-31T13:42:59;2.97;;;1.20;;
17151;SDS011;8691;50.828;4.700;2023-08-31T13:45:30;3.20;;;1.13;;
17151;SDS011;8691;50.828;4.700;2023-08-31T13:47:58;3.27;;;1.13;;
17151;SDS011;8691;50.828;4.700;2023-08-31T13:50:25;3.05;;;1.40;;
17151;SDS011;8691;50.828;4.700;2023-08-31T13:52:51;4.70;;;1.40;;
17151;SDS011;8691;50.828;4.700;2023-08-31T13:55:18;3.58;;;1.30;;
17151;SDS011;8691;50.828;4.700;2023-08-31T13:57:45;3.13;;;1.10;;
17151;SDS011;8691;50.828;4.700;2023-08-31T14:00:12;3.55;;;1.40;;
17151;SDS011;8691;50.828;4.700;2023-08-31T14:02:39;3.33;;;1.20;;
17151;SDS011;8691;50.828;4.700;2023-08-31T14:05:06;2.47;;;1.40;;
17151;SDS011;8691;50.828;4.700;2023-08-31T14:07:32;2.00;;;1.30;;
17151;SDS011;8691;50.828;4.700;2023-08-31T14:09:59;2.27;;;1.37;;
17151;SDS011;8691;50.828;4.700;2023-08-31T14:12:26;3.95;;;1.70;;
17151;SDS011;8691;50.828;4.700;2023-08-31T14:14:53;2.60;;;1.57;;
17151;SDS011;8691;50.828;4.700;2023-08-31T14:17:20;4.00;;;1.50;;
17151;SDS011;8691;50.828;4.700;2023-08-31T14:19:47;2.40;;;1.30;;
17151;SDS011;8691;50.828;4.700;2023-08-31T14:22:14;4.00;;;1.40;;
17151;SDS011;8691;50.828;4.700;2023-08-31T14:24:41;3.67;;;1.55;;
17151;SDS011;8691;50.828;4.700;2023-08-31T14:27:08;4.47;;;1.30;;
17151;SDS011;8691;50.828;4.700;2023-08-31T14:29:36;4.55;;;1.70;;
17151;SDS011;8691;50.828;4.700;2023-08-31T14:32:02;5.17;;;1.60;;
17151;SDS011;8691;50.828;4.700;2023-08-31T14:34:29;3.45;;;1.70;;
17151;SDS011;8691;50.828;4.700;2023-08-31T14:36:56;2.58;;;1.50;;
17151;SDS011;8691;50.828;4.700;2023-08-31T14:39:22;2.80;;;1.50;;
17151;SDS011;8691;50.828;4.700;2023-08-31T14:41:49;5.55;;;1.90;;
17151;SDS011;8691;50.828;4.700;2023-08-31T14:44:16;3.43;;;1.60;;
17151;SDS011;8691;50.828;4.700;2023-08-31T14:46:43;4.23;;;2.10;;
17151;SDS011;8691;50.828;4.700;2023-08-31T14:49:10;3.60;;;1.63;;
17151;SDS011;8691;50.828;4.700;2023-08-31T14:51:36;6.07;;;1.90;;
17151;SDS011;8691;50.828;4.700;2023-08-31T14:54:04;4.68;;;1.90;;
17151;SDS011;8691;50.828;4.700;2023-08-31T14:56:31;3.30;;;1.73;;
17151;SDS011;8691;50.828;4.700;2023-08-31T14:58:58;2.90;;;1.42;;
17151;SDS011;8691;50.828;4.700;2023-08-31T15:01:25;3.83;;;1.85;;
17151;SDS011;8691;50.828;4.700;2023-08-31T15:03:52;3.10;;;1.57;;
17151;SDS011;8691;50.828;4.700;2023-08-31T15:06:19;3.17;;;1.55;;
17151;SDS011;8691;50.828;4.700;2023-08-31T15:08:46;3.40;;;1.70;;
17151;SDS011;8691;50.828;4.700;2023-08-31T15:11:13;4.33;;;1.70;;